sensor_id;sensor_type;location;lat;lon;timestamp;temperature;humidity
10057;DHT22;5068;51.286;7.518;2023-11-21T00:01:02;7.60;66.30
10057;DHT22;5068;51.286;7.518;2023-11-21T00:02:35;7.50;66.20
10057;DHT22;5068;51.286;7.518;2023-11-21T00:04:10;7.50;66.20
10057;DHT22;5068;51.286;7.518;2023-11-21T00:05:43;7.50;66.20
10057;DHT22;5068;51.286;7.518;2023-11-21T00:07:16;7.50;66.10
10057;DHT22;5068;51.286;7.518;2023-11-21T00:08:49;7.40;66.00
10057;DHT22;5068;51.286;7.518;2023-11-21T00:10:23;7.40;66.00
10057;DHT22;5068;51.286;7.518;2023-11-21T00:11:56;7.50;66.10
10057;DHT22;5068;51.286;7.518;2023-11-21T00:13:31;7.40;66.00
10057;DHT22;5068;51.286;7.518;2023-11-21T00:15:04;7.40;66.10
10057;DHT22;5068;51.286;7.518;2023-11-21T00:16:41;7.30;66.10
10057;DHT22;5068;51.286;7.518;2023-11-21T00:18:14;7.30;66.20
10057;DHT22;5068;51.286;7.518;2023-11-21T00:19:47;7.30;66.30
10057;DHT22;5068;51.286;7.518;2023-11-21T00:21:20;7.30;66.40
10057;DHT22;5068;51.286;7.518;2023-11-21T00:22:52;7.30;66.60
10057;DHT22;5068;51.286;7.518;2023-11-21T00:24:26;7.20;66.60
10057;DHT22;5068;51.286;7.518;2023-11-21T00:25:59;7.20;66.60
10057;DHT22;5068;51.286;7.518;2023-11-21T00:27:33;7.20;66.80
10057;DHT22;5068;51.286;7.518;2023-11-21T00:29:05;7.20;66.90
10057;DHT22;5068;51.286;7.518;2023-11-21T00:30:40;7.20;67.00
10057;DHT22;5068;51.286;7.518;2023-11-21T00:32:12;7.20;67.10
10057;DHT22;5068;51.286;7.518;2023-11-21T00:33:45;7.20;67.20
10057;DHT22;5068;51.286;7.518;2023-11-21T00:35:18;7.20;67.20
10057;DHT22;5068;51.286;7.518;2023-11-21T00:36:52;7.20;67.50
10057;DHT22;5068;51.286;7.518;2023-11-21T00:38:25;7.20;67.50
10057;DHT22;5068;51.286;7.518;2023-11-21T00:39:59;7.20;67.60
10057;DHT22;5068;51.286;7.518;2023-11-21T00:41:34;7.20;67.70
10057;DHT22;5068;51.286;7.518;2023-11-21T00:43:08;7.20;67.90
10057;DHT22;5068;51.286;7.518;2023-11-21T00:44:40;7.20;67.80
10057;DHT22;5068;51.286;7.518;2023-11-21T00:46:14;7.10;67.70
10057;DHT22;5068;51.286;7.518;2023-11-21T00:47:47;7.10;67.70
10057;DHT22;5068;51.286;7.518;2023-11-21T00:49:20;7.10;67.70
10057;DHT22;5068;51.286;7.518;2023-11-21T00:50:54;7.10;67.70
10057;DHT22;5068;51.286;7.518;2023-11-21T00:52:28;7.10;67.70
10057;DHT22;5068;51.286;7.518;2023-11-21T00:54:00;7.10;67.70
10057;DHT22;5068;51.286;7.518;2023-11-21T00:55:34;7.10;67.70
10057;DHT22;5068;51.286;7.518;2023-11-21T00:57:08;7.20;67.90
10057;DHT22;5068;51.286;7.518;2023-11-21T00:58:43;7.20;68.10
10057;DHT22;5068;51.286;7.518;2023-11-21T01:00:18;7.10;67.90
10057;DHT22;5068;51.286;7.518;2023-11-21T01:01:52;7.10;68.00
10057;DHT22;5068;51.286;7.518;2023-11-21T01:03:26;7.10;68.00
10057;DHT22;5068;51.286;7.518;2023-11-21T01:04:59;7.10;67.90
10057;DHT22;5068;51.286;7.518;2023-11-21T01:06:32;7.10;67.90
10057;DHT22;5068;51.286;7.518;2023-11-21T01:08:05;7.10;68.00
10057;DHT22;5068;51.286;7.518;2023-11-21T01:09:38;7.10;68.00
10057;DHT22;5068;51.286;7.518;2023-11-21T01:11:11;7.10;67.80
10057;DHT22;5068;51.286;7.518;2023-11-21T01:12:46;7.20;67.90
10057;DHT22;5068;51.286;7.518;2023-11-21T01:14:18;7.10;67.70
10057;DHT22;5068;51.286;7.518;2023-11-21T01:15:51;7.10;67.70
10057;DHT22;5068;51.286;7.518;2023-11-21T01:17:24;7.10;67.60
10057;DHT22;5068;51.286;7.518;2023-11-21T01:18:57;7.20;67.80
10057;DHT22;5068;51.286;7.518;2023-11-21T01:20:30;7.10;67.70
10057;DHT22;5068;51.286;7.518;2023-11-21T01:22:04;7.30;68.00
10057;DHT22;5068;51.286;7.518;2023-11-21T01:23:37;7.10;67.60
10057;DHT22;5068;51.286;7.518;2023-11-21T01:25:10;7.10;67.70
10057;DHT22;5068;51.286;7.518;2023-11-21T01:26:47;7.10;67.60
10057;DHT22;5068;51.286;7.518;2023-11-21T01:28:20;7.10;67.60
10057;DHT22;5068;51.286;7.518;2023-11-21T01:29:53;7.10;67.50
10057;DHT22;5068;51.286;7.518;2023-11-21T01:31:26;7.10;67.50
10057;DHT22;5068;51.286;7.518;2023-11-21T01:33:01;7.10;67.40
10057;DHT22;5068;51.286;7.518;2023-11-21T01:34:35;7.10;67.60
10057;DHT22;5068;51.286;7.518;2023-11-21T01:36:09;7.10;67.40
10057;DHT22;5068;51.286;7.518;2023-11-21T01:37:42;7.10;67.60
10057;DHT22;5068;51.286;7.518;2023-11-21T01:39:15;7.10;67.40
10057;DHT22;5068;51.286;7.518;2023-11-21T01:40:50;7.10;67.40
10057;DHT22;5068;51.286;7.518;2023-11-21T01:42:23;7.10;67.60
10057;DHT22;5068;51.286;7.518;2023-11-21T01:43:57;7.10;67.40
10057;DHT22;5068;51.286;7.518;2023-11-21T01:45:30;7.10;67.40
10057;DHT22;5068;51.286;7.518;2023-11-21T01:47:03;7.00;67.30
10057;DHT22;5068;51.286;7.518;2023-11-21T01:48:37;7.00;67.50
10057;DHT22;5068;51.286;7.518;2023-11-21T01:50:14;7.00;67.70
10057;DHT22;5068;51.286;7.518;2023-11-21T01:51:49;7.00;67.70
10057;DHT22;5068;51.286;7.518;2023-11-21T01:53:24;7.00;67.70
10057;DHT22;5068;51.286;7.518;2023-11-21T01:54:59;7.00;67.70
10057;DHT22;5068;51.286;7.518;2023-11-21T01:56:33;7.00;67.70
10057;DHT22;5068;51.286;7.518;2023-11-21T01:58:06;7.00;67.70
10057;DHT22;5068;51.286;7.518;2023-11-21T01:59:43;7.00;67.60
10057;DHT22;5068;51.286;7.518;2023-11-21T02:01:17;7.00;67.70
10057;DHT22;5068;51.286;7.518;2023-11-21T02:02:51;7.00;67.60
10057;DHT22;5068;51.286;7.518;2023-11-21T02:04:24;7.00;67.60
10057;DHT22;5068;51.286;7.518;2023-11-21T02:05:57;7.00;67.60
10057;DHT22;5068;51.286;7.518;2023-11-21T02:07:31;7.00;67.60
10057;DHT22;5068;51.286;7.518;2023-11-21T02:09:04;6.90;67.50
10057;DHT22;5068;51.286;7.518;2023-11-21T02:10:38;7.00;67.70
10057;DHT22;5068;51.286;7.518;2023-11-21T02:12:10;7.00;67.80
10057;DHT22;5068;51.286;7.518;2023-11-21T02:13:44;7.10;67.90
10057;DHT22;5068;51.286;7.518;2023-11-21T02:15:19;7.00;67.90
10057;DHT22;5068;51.286;7.518;2023-11-21T02:16:54;7.00;67.90
10057;DHT22;5068;51.286;7.518;2023-11-21T02:18:29;7.00;68.00
10057;DHT22;5068;51.286;7.518;2023-11-21T02:20:04;7.10;68.00
10057;DHT22;5068;51.286;7.518;2023-11-21T02:21:44;7.00;68.00
10057;DHT22;5068;51.286;7.518;2023-11-21T02:23:18;7.00;68.00
10057;DHT22;5068;51.286;7.518;2023-11-21T02:24:52;7.00;67.80
10057;DHT22;5068;51.286;7.518;2023-11-21T02:26:24;7.10;67.90
10057;DHT22;5068;51.286;7.518;2023-11-21T02:27:59;7.00;67.80
10057;DHT22;5068;51.286;7.518;2023-11-21T02:29:32;7.00;67.80
10057;DHT22;5068;51.286;7.518;2023-11-21T02:31:06;7.10;67.70
10057;DHT22;5068;51.286;7.518;2023-11-21T02:32:39;7.00;67.60
10057;DHT22;5068;51.286;7.518;2023-11-21T02:34:21;7.00;67.60
10057;DHT22;5068;51.286;7.518;2023-11-21T02:35:54;7.00;67.80
10057;DHT22;5068;51.286;7.518;2023-11-21T02:37:27;7.00;67.70
10057;DHT22;5068;51.286;7.518;2023-11-21T02:39:01;7.10;67.70
10057;DHT22;5068;51.286;7.518;2023-11-21T02:40:34;7.00;67.70
10057;DHT22;5068;51.286;7.518;2023-11-21T02:42:08;7.00;67.60
10057;DHT22;5068;51.286;7.518;2023-11-21T02:43:40;7.00;67.70
10057;DHT22;5068;51.286;7.518;2023-11-21T02:45:14;7.00;67.80
10057;DHT22;5068;51.286;7.518;2023-11-21T02:46:49;7.00;67.90
10057;DHT22;5068;51.286;7.518;2023-11-21T02:48:22;7.00;67.90
10057;DHT22;5068;51.286;7.518;2023-11-21T02:49:57;7.00;67.90
10057;DHT22;5068;51.286;7.518;2023-11-21T02:51:32;7.00;67.80
10057;DHT22;5068;51.286;7.518;2023-11-21T02:53:05;7.00;67.80
10057;DHT22;5068;51.286;7.518;2023-11-21T02:54:39;7.10;67.70
10057;DHT22;5068;51.286;7.518;2023-11-21T02:56:12;7.00;67.60
10057;DHT22;5068;51.286;7.518;2023-11-21T02:57:46;7.00;67.60
10057;DHT22;5068;51.286;7.518;2023-11-21T02:59:18;7.00;67.60
10057;DHT22;5068;51.286;7.518;2023-11-21T03:00:52;7.00;68.40
10057;DHT22;5068;51.286;7.518;2023-11-21T03:02:26;7.00;67.60
10057;DHT22;5068;51.286;7.518;2023-11-21T03:03:58;6.90;67.50
10057;DHT22;5068;51.286;7.518;2023-11-21T03:05:32;7.00;67.60
10057;DHT22;5068;51.286;7.518;2023-11-21T03:07:07;6.90;67.60
10057;DHT22;5068;51.286;7.518;2023-11-21T03:08:39;7.00;67.60
10057;DHT22;5068;51.286;7.518;2023-11-21T03:10:15;6.90;67.50
10057;DHT22;5068;51.286;7.518;2023-11-21T03:11:48;6.90;67.60
10057;DHT22;5068;51.286;7.518;2023-11-21T03:13:21;6.90;67.70
10057;DHT22;5068;51.286;7.518;2023-11-21T03:14:53;6.90;67.70
10057;DHT22;5068;51.286;7.518;2023-11-21T03:16:27;6.90;67.90
10057;DHT22;5068;51.286;7.518;2023-11-21T03:17:59;6.90;67.80
10057;DHT22;5068;51.286;7.518;2023-11-21T03:19:33;6.90;67.90
10057;DHT22;5068;51.286;7.518;2023-11-21T03:21:05;6.90;67.90
10057;DHT22;5068;51.286;7.518;2023-11-21T03:22:40;6.90;68.00
10057;DHT22;5068;51.286;7.518;2023-11-21T03:24:12;6.90;67.80
10057;DHT22;5068;51.286;7.518;2023-11-21T03:25:50;6.90;67.80
10057;DHT22;5068;51.286;7.518;2023-11-21T03:27:23;6.90;67.70
10057;DHT22;5068;51.286;7.518;2023-11-21T03:28:56;6.90;67.80
10057;DHT22;5068;51.286;7.518;2023-11-21T03:30:28;7.00;67.90
10057;DHT22;5068;51.286;7.518;2023-11-21T03:32:03;6.90;67.70
10057;DHT22;5068;51.286;7.518;2023-11-21T03:33:36;6.90;67.90
10057;DHT22;5068;51.286;7.518;2023-11-21T03:35:09;6.90;67.90
10057;DHT22;5068;51.286;7.518;2023-11-21T03:36:42;6.80;67.80
10057;DHT22;5068;51.286;7.518;2023-11-21T03:38:15;6.90;67.80
10057;DHT22;5068;51.286;7.518;2023-11-21T03:39:47;6.90;67.90
10057;DHT22;5068;51.286;7.518;2023-11-21T03:41:22;6.80;67.80
10057;DHT22;5068;51.286;7.518;2023-11-21T03:42:54;6.90;67.90
10057;DHT22;5068;51.286;7.518;2023-11-21T03:44:27;6.90;67.90
10057;DHT22;5068;51.286;7.518;2023-11-21T03:46:00;6.90;67.80
10057;DHT22;5068;51.286;7.518;2023-11-21T03:47:33;6.90;67.80
10057;DHT22;5068;51.286;7.518;2023-11-21T03:49:06;6.90;67.90
10057;DHT22;5068;51.286;7.518;2023-11-21T03:50:39;6.80;67.70
10057;DHT22;5068;51.286;7.518;2023-11-21T03:52:11;6.80;67.70
10057;DHT22;5068;51.286;7.518;2023-11-21T03:53:45;6.90;67.90
10057;DHT22;5068;51.286;7.518;2023-11-21T03:55:17;6.80;67.80
10057;DHT22;5068;51.286;7.518;2023-11-21T03:56:51;6.80;67.80
10057;DHT22;5068;51.286;7.518;2023-11-21T03:58:24;6.80;67.90
10057;DHT22;5068;51.286;7.518;2023-11-21T03:59:57;6.80;67.90
10057;DHT22;5068;51.286;7.518;2023-11-21T04:01:29;6.80;67.90
10057;DHT22;5068;51.286;7.518;2023-11-21T04:03:03;6.80;67.90
10057;DHT22;5068;51.286;7.518;2023-11-21T04:04:35;6.80;68.00
10057;DHT22;5068;51.286;7.518;2023-11-21T04:06:09;6.80;68.10
10057;DHT22;5068;51.286;7.518;2023-11-21T04:07:42;6.80;68.20
10057;DHT22;5068;51.286;7.518;2023-11-21T04:09:14;6.80;68.30
10057;DHT22;5068;51.286;7.518;2023-11-21T04:10:47;6.80;68.20
10057;DHT22;5068;51.286;7.518;2023-11-21T04:12:22;6.90;68.40
10057;DHT22;5068;51.286;7.518;2023-11-21T04:13:55;6.80;68.20
10057;DHT22;5068;51.286;7.518;2023-11-21T04:15:28;6.80;68.20
10057;DHT22;5068;51.286;7.518;2023-11-21T04:17:00;6.80;68.10
10057;DHT22;5068;51.286;7.518;2023-11-21T04:18:36;6.80;68.10
10057;DHT22;5068;51.286;7.518;2023-11-21T04:20:09;6.80;68.20
10057;DHT22;5068;51.286;7.518;2023-11-21T04:21:43;6.80;68.20
10057;DHT22;5068;51.286;7.518;2023-11-21T04:23:15;6.80;68.20
10057;DHT22;5068;51.286;7.518;2023-11-21T04:24:49;6.80;68.20
10057;DHT22;5068;51.286;7.518;2023-11-21T04:26:21;6.80;68.10
10057;DHT22;5068;51.286;7.518;2023-11-21T04:27:56;6.80;68.10
10057;DHT22;5068;51.286;7.518;2023-11-21T04:29:28;6.80;68.10
10057;DHT22;5068;51.286;7.518;2023-11-21T04:31:02;6.80;68.10
10057;DHT22;5068;51.286;7.518;2023-11-21T04:32:34;6.80;68.10
10057;DHT22;5068;51.286;7.518;2023-11-21T04:34:07;6.80;68.10
10057;DHT22;5068;51.286;7.518;2023-11-21T04:35:40;6.90;68.20
10057;DHT22;5068;51.286;7.518;2023-11-21T04:37:13;6.80;68.10
10057;DHT22;5068;51.286;7.518;2023-11-21T04:38:46;6.80;68.10
10057;DHT22;5068;51.286;7.518;2023-11-21T04:40:18;6.80;68.10
10057;DHT22;5068;51.286;7.518;2023-11-21T04:41:52;6.80;68.10
10057;DHT22;5068;51.286;7.518;2023-11-21T04:43:26;6.80;68.20
10057;DHT22;5068;51.286;7.518;2023-11-21T04:44:59;6.80;68.40
10057;DHT22;5068;51.286;7.518;2023-11-21T04:46:33;6.80;68.40
10057;DHT22;5068;51.286;7.518;2023-11-21T04:48:06;6.80;68.40
10057;DHT22;5068;51.286;7.518;2023-11-21T04:49:42;6.80;68.50
10057;DHT22;5068;51.286;7.518;2023-11-21T04:51:15;6.80;68.60
10057;DHT22;5068;51.286;7.518;2023-11-21T04:52:47;6.70;68.40
10057;DHT22;5068;51.286;7.518;2023-11-21T04:54:21;6.80;68.50
10057;DHT22;5068;51.286;7.518;2023-11-21T04:55:57;6.80;68.50
10057;DHT22;5068;51.286;7.518;2023-11-21T04:57:30;6.80;68.50
10057;DHT22;5068;51.286;7.518;2023-11-21T04:59:05;6.80;68.40
10057;DHT22;5068;51.286;7.518;2023-11-21T05:00:38;6.80;68.40
10057;DHT22;5068;51.286;7.518;2023-11-21T05:02:11;6.80;68.40
10057;DHT22;5068;51.286;7.518;2023-11-21T05:04:04;6.80;68.50
10057;DHT22;5068;51.286;7.518;2023-11-21T05:05:40;6.80;68.50
10057;DHT22;5068;51.286;7.518;2023-11-21T05:07:14;6.80;68.30
10057;DHT22;5068;51.286;7.518;2023-11-21T05:08:48;6.80;68.50
10057;DHT22;5068;51.286;7.518;2023-11-21T05:10:21;6.80;68.40
10057;DHT22;5068;51.286;7.518;2023-11-21T05:11:54;6.80;68.50
10057;DHT22;5068;51.286;7.518;2023-11-21T05:13:27;6.80;68.50
10057;DHT22;5068;51.286;7.518;2023-11-21T05:15:01;6.80;68.50
10057;DHT22;5068;51.286;7.518;2023-11-21T05:16:39;6.80;68.40
10057;DHT22;5068;51.286;7.518;2023-11-21T05:18:12;6.80;68.40
10057;DHT22;5068;51.286;7.518;2023-11-21T05:19:45;6.80;68.50
10057;DHT22;5068;51.286;7.518;2023-11-21T05:21:21;6.80;68.40
10057;DHT22;5068;51.286;7.518;2023-11-21T05:22:54;6.80;68.40
10057;DHT22;5068;51.286;7.518;2023-11-21T05:24:27;6.80;68.40
10057;DHT22;5068;51.286;7.518;2023-11-21T05:26:00;6.80;68.40
10057;DHT22;5068;51.286;7.518;2023-11-21T05:27:33;6.80;68.50
10057;DHT22;5068;51.286;7.518;2023-11-21T05:29:06;6.80;68.60
10057;DHT22;5068;51.286;7.518;2023-11-21T05:30:42;6.80;68.50
10057;DHT22;5068;51.286;7.518;2023-11-21T05:32:14;6.80;68.50
10057;DHT22;5068;51.286;7.518;2023-11-21T05:33:49;6.80;68.60
10057;DHT22;5068;51.286;7.518;2023-11-21T05:35:22;6.80;68.60
10057;DHT22;5068;51.286;7.518;2023-11-21T05:36:54;6.80;68.60
10057;DHT22;5068;51.286;7.518;2023-11-21T05:38:30;6.80;68.70
10057;DHT22;5068;51.286;7.518;2023-11-21T05:40:04;6.80;68.60
10057;DHT22;5068;51.286;7.518;2023-11-21T05:41:38;6.80;68.80
10057;DHT22;5068;51.286;7.518;2023-11-21T05:43:11;6.80;68.60
10057;DHT22;5068;51.286;7.518;2023-11-21T05:44:44;6.80;68.70
10057;DHT22;5068;51.286;7.518;2023-11-21T05:46:18;6.80;68.60
10057;DHT22;5068;51.286;7.518;2023-11-21T05:47:51;6.80;68.60
10057;DHT22;5068;51.286;7.518;2023-11-21T05:49:24;6.80;68.50
10057;DHT22;5068;51.286;7.518;2023-11-21T05:50:58;6.80;68.60
10057;DHT22;5068;51.286;7.518;2023-11-21T05:52:33;6.80;68.70
10057;DHT22;5068;51.286;7.518;2023-11-21T05:54:06;6.80;68.60
10057;DHT22;5068;51.286;7.518;2023-11-21T05:55:39;6.80;68.60
10057;DHT22;5068;51.286;7.518;2023-11-21T05:57:13;6.90;68.70
10057;DHT22;5068;51.286;7.518;2023-11-21T05:58:45;6.80;68.70
10057;DHT22;5068;51.286;7.518;2023-11-21T06:00:20;6.90;68.90
10057;DHT22;5068;51.286;7.518;2023-11-21T06:01:55;6.80;68.90
10057;DHT22;5068;51.286;7.518;2023-11-21T06:03:28;6.80;68.70
10057;DHT22;5068;51.286;7.518;2023-11-21T06:05:01;6.80;68.70
10057;DHT22;5068;51.286;7.518;2023-11-21T06:06:36;6.80;68.70
10057;DHT22;5068;51.286;7.518;2023-11-21T06:08:09;6.80;68.70
10057;DHT22;5068;51.286;7.518;2023-11-21T06:09:42;6.80;68.70
10057;DHT22;5068;51.286;7.518;2023-11-21T06:11:16;6.80;68.80
10057;DHT22;5068;51.286;7.518;2023-11-21T06:12:49;6.80;68.70
10057;DHT22;5068;51.286;7.518;2023-11-21T06:14:22;6.80;68.90
10057;DHT22;5068;51.286;7.518;2023-11-21T06:15:54;6.80;68.80
10057;DHT22;5068;51.286;7.518;2023-11-21T06:17:29;6.80;68.80
10057;DHT22;5068;51.286;7.518;2023-11-21T06:19:02;6.80;68.90
10057;DHT22;5068;51.286;7.518;2023-11-21T06:20:36;6.80;68.90
10057;DHT22;5068;51.286;7.518;2023-11-21T06:22:10;6.90;69.10
10057;DHT22;5068;51.286;7.518;2023-11-21T06:23:42;6.90;69.10
10057;DHT22;5068;51.286;7.518;2023-11-21T06:25:15;6.90;69.80
10057;DHT22;5068;51.286;7.518;2023-11-21T06:26:49;6.90;69.10
10057;DHT22;5068;51.286;7.518;2023-11-21T06:28:22;6.90;69.00
10057;DHT22;5068;51.286;7.518;2023-11-21T06:29:54;6.90;69.00
10057;DHT22;5068;51.286;7.518;2023-11-21T06:31:28;6.90;69.00
10057;DHT22;5068;51.286;7.518;2023-11-21T06:33:02;6.90;69.10
10057;DHT22;5068;51.286;7.518;2023-11-21T06:34:35;6.90;68.90
10057;DHT22;5068;51.286;7.518;2023-11-21T06:36:09;6.90;69.00
10057;DHT22;5068;51.286;7.518;2023-11-21T06:37:43;6.90;69.10
10057;DHT22;5068;51.286;7.518;2023-11-21T06:39:19;6.90;69.00
10057;DHT22;5068;51.286;7.518;2023-11-21T06:40:54;6.90;68.90
10057;DHT22;5068;51.286;7.518;2023-11-21T06:42:27;6.90;69.10
10057;DHT22;5068;51.286;7.518;2023-11-21T06:44:01;6.90;68.90
10057;DHT22;5068;51.286;7.518;2023-11-21T06:45:36;6.90;68.80
10057;DHT22;5068;51.286;7.518;2023-11-21T06:47:10;6.90;68.70
10057;DHT22;5068;51.286;7.518;2023-11-21T06:48:44;6.90;68.70
10057;DHT22;5068;51.286;7.518;2023-11-21T06:50:17;6.90;68.60
10057;DHT22;5068;51.286;7.518;2023-11-21T06:51:50;6.90;68.70
10057;DHT22;5068;51.286;7.518;2023-11-21T06:53:23;6.90;68.70
10057;DHT22;5068;51.286;7.518;2023-11-21T06:54:56;6.90;68.80
10057;DHT22;5068;51.286;7.518;2023-11-21T06:56:29;6.90;68.80
10057;DHT22;5068;51.286;7.518;2023-11-21T06:58:03;6.90;68.70
10057;DHT22;5068;51.286;7.518;2023-11-21T06:59:36;6.90;69.60
10057;DHT22;5068;51.286;7.518;2023-11-21T07:01:10;6.90;68.90
10057;DHT22;5068;51.286;7.518;2023-11-21T07:02:42;6.90;68.70
10057;DHT22;5068;51.286;7.518;2023-11-21T07:04:17;7.00;68.90
10057;DHT22;5068;51.286;7.518;2023-11-21T07:05:50;6.90;68.80
10057;DHT22;5068;51.286;7.518;2023-11-21T07:07:23;6.90;68.70
10057;DHT22;5068;51.286;7.518;2023-11-21T07:08:56;6.90;68.80
10057;DHT22;5068;51.286;7.518;2023-11-21T07:10:30;6.90;68.70
10057;DHT22;5068;51.286;7.518;2023-11-21T07:12:03;6.90;68.90
10057;DHT22;5068;51.286;7.518;2023-11-21T07:13:39;6.90;69.00
10057;DHT22;5068;51.286;7.518;2023-11-21T07:15:11;6.90;69.00
10057;DHT22;5068;51.286;7.518;2023-11-21T07:16:44;6.90;69.10
10057;DHT22;5068;51.286;7.518;2023-11-21T07:18:17;6.90;69.20
10057;DHT22;5068;51.286;7.518;2023-11-21T07:19:51;6.90;69.20
10057;DHT22;5068;51.286;7.518;2023-11-21T07:21:24;6.90;69.30
10057;DHT22;5068;51.286;7.518;2023-11-21T07:22:57;6.90;69.20
10057;DHT22;5068;51.286;7.518;2023-11-21T07:24:29;6.90;69.40
10057;DHT22;5068;51.286;7.518;2023-11-21T07:26:04;6.90;69.40
10057;DHT22;5068;51.286;7.518;2023-11-21T07:27:40;6.90;69.50
10057;DHT22;5068;51.286;7.518;2023-11-21T07:29:14;6.90;69.40
10057;DHT22;5068;51.286;7.518;2023-11-21T07:30:46;6.90;69.30
10057;DHT22;5068;51.286;7.518;2023-11-21T07:32:20;6.90;69.30
10057;DHT22;5068;51.286;7.518;2023-11-21T07:33:52;6.90;69.40
10057;DHT22;5068;51.286;7.518;2023-11-21T07:35:27;6.90;69.30
10057;DHT22;5068;51.286;7.518;2023-11-21T07:37:01;6.90;69.30
10057;DHT22;5068;51.286;7.518;2023-11-21T07:38:33;6.90;69.30
10057;DHT22;5068;51.286;7.518;2023-11-21T07:40:07;7.00;69.40
10057;DHT22;5068;51.286;7.518;2023-11-21T07:41:41;6.90;69.30
10057;DHT22;5068;51.286;7.518;2023-11-21T07:43:20;6.90;69.20
10057;DHT22;5068;51.286;7.518;2023-11-21T07:44:52;6.90;69.20
10057;DHT22;5068;51.286;7.518;2023-11-21T07:46:26;7.00;69.30
10057;DHT22;5068;51.286;7.518;2023-11-21T07:47:59;7.00;69.30
10057;DHT22;5068;51.286;7.518;2023-11-21T07:49:32;7.00;69.30
10057;DHT22;5068;51.286;7.518;2023-11-21T07:51:06;7.00;69.40
10057;DHT22;5068;51.286;7.518;2023-11-21T07:52:40;7.00;69.40
10057;DHT22;5068;51.286;7.518;2023-11-21T07:54:12;7.00;69.40
10057;DHT22;5068;51.286;7.518;2023-11-21T07:55:45;7.00;69.40
10057;DHT22;5068;51.286;7.518;2023-11-21T07:57:19;7.00;69.50
10057;DHT22;5068;51.286;7.518;2023-11-21T07:58:52;6.90;69.40
10057;DHT22;5068;51.286;7.518;2023-11-21T08:00:25;7.00;69.60
10057;DHT22;5068;51.286;7.518;2023-11-21T08:02:02;7.00;69.60
10057;DHT22;5068;51.286;7.518;2023-11-21T08:03:34;7.00;69.70
10057;DHT22;5068;51.286;7.518;2023-11-21T08:05:08;7.00;69.60
10057;DHT22;5068;51.286;7.518;2023-11-21T08:06:54;7.00;69.60
10057;DHT22;5068;51.286;7.518;2023-11-21T08:08:27;7.00;69.50
10057;DHT22;5068;51.286;7.518;2023-11-21T08:10:00;7.00;69.50
10057;DHT22;5068;51.286;7.518;2023-11-21T08:11:33;7.00;69.60
10057;DHT22;5068;51.286;7.518;2023-11-21T08:13:06;7.00;69.50
10057;DHT22;5068;51.286;7.518;2023-11-21T08:14:40;7.00;69.50
10057;DHT22;5068;51.286;7.518;2023-11-21T08:16:15;7.00;69.60
10057;DHT22;5068;51.286;7.518;2023-11-21T08:17:49;7.10;69.70
10057;DHT22;5068;51.286;7.518;2023-11-21T08:19:22;7.10;69.70
10057;DHT22;5068;51.286;7.518;2023-11-21T08:20:57;7.20;70.00
10057;DHT22;5068;51.286;7.518;2023-11-21T08:22:32;7.10;69.80
10057;DHT22;5068;51.286;7.518;2023-11-21T08:24:05;7.10;69.80
10057;DHT22;5068;51.286;7.518;2023-11-21T08:25:43;7.10;70.00
10057;DHT22;5068;51.286;7.518;2023-11-21T08:27:15;7.20;70.00
10057;DHT22;5068;51.286;7.518;2023-11-21T08:28:49;7.10;69.90
10057;DHT22;5068;51.286;7.518;2023-11-21T08:30:21;7.10;70.00
10057;DHT22;5068;51.286;7.518;2023-11-21T08:31:55;7.20;70.10
10057;DHT22;5068;51.286;7.518;2023-11-21T08:33:28;7.10;70.00
10057;DHT22;5068;51.286;7.518;2023-11-21T08:35:02;7.20;70.10
10057;DHT22;5068;51.286;7.518;2023-11-21T08:36:34;7.20;70.20
10057;DHT22;5068;51.286;7.518;2023-11-21T08:38:09;7.20;70.10
10057;DHT22;5068;51.286;7.518;2023-11-21T08:39:43;7.20;70.20
10057;DHT22;5068;51.286;7.518;2023-11-21T08:41:16;7.20;70.40
10057;DHT22;5068;51.286;7.518;2023-11-21T08:42:48;7.20;70.30
10057;DHT22;5068;51.286;7.518;2023-11-21T08:44:23;7.30;70.40
10057;DHT22;5068;51.286;7.518;2023-11-21T08:45:56;7.30;70.40
10057;DHT22;5068;51.286;7.518;2023-11-21T08:47:30;7.30;70.40
10057;DHT22;5068;51.286;7.518;2023-11-21T08:49:02;7.30;70.30
10057;DHT22;5068;51.286;7.518;2023-11-21T08:50:36;7.30;70.40
10057;DHT22;5068;51.286;7.518;2023-11-21T08:52:09;7.30;70.30
10057;DHT22;5068;51.286;7.518;2023-11-21T08:53:43;7.30;70.30
10057;DHT22;5068;51.286;7.518;2023-11-21T08:55:17;7.40;70.50
10057;DHT22;5068;51.286;7.518;2023-11-21T08:56:49;7.40;70.50
10057;DHT22;5068;51.286;7.518;2023-11-21T08:58:22;7.40;70.40
10057;DHT22;5068;51.286;7.518;2023-11-21T08:59:54;7.40;70.40
10057;DHT22;5068;51.286;7.518;2023-11-21T09:01:28;7.40;70.50
10057;DHT22;5068;51.286;7.518;2023-11-21T09:03:01;7.40;70.60
10057;DHT22;5068;51.286;7.518;2023-11-21T09:04:35;7.50;70.70
10057;DHT22;5068;51.286;7.518;2023-11-21T09:06:12;7.60;70.70
10057;DHT22;5068;51.286;7.518;2023-11-21T09:07:44;7.50;70.70
10057;DHT22;5068;51.286;7.518;2023-11-21T09:09:22;7.50;70.90
10057;DHT22;5068;51.286;7.518;2023-11-21T09:10:56;7.50;70.90
10057;DHT22;5068;51.286;7.518;2023-11-21T09:12:29;7.50;70.90
10057;DHT22;5068;51.286;7.518;2023-11-21T09:14:04;7.60;71.00
10057;DHT22;5068;51.286;7.518;2023-11-21T09:15:37;7.70;71.10
10057;DHT22;5068;51.286;7.518;2023-11-21T09:17:10;7.60;71.00
10057;DHT22;5068;51.286;7.518;2023-11-21T09:18:44;7.70;71.20
10057;DHT22;5068;51.286;7.518;2023-11-21T09:20:17;7.70;71.20
10057;DHT22;5068;51.286;7.518;2023-11-21T09:21:52;7.70;71.20
10057;DHT22;5068;51.286;7.518;2023-11-21T09:23:25;7.70;71.00
10057;DHT22;5068;51.286;7.518;2023-11-21T09:25:00;7.60;70.90
10057;DHT22;5068;51.286;7.518;2023-11-21T09:26:32;7.70;71.00
10057;DHT22;5068;51.286;7.518;2023-11-21T09:28:06;7.70;71.00
10057;DHT22;5068;51.286;7.518;2023-11-21T09:29:40;7.80;71.10
10057;DHT22;5068;51.286;7.518;2023-11-21T09:31:14;7.80;71.00
10057;DHT22;5068;51.286;7.518;2023-11-21T09:32:48;7.80;71.10
10057;DHT22;5068;51.286;7.518;2023-11-21T09:34:20;7.80;71.10
10057;DHT22;5068;51.286;7.518;2023-11-21T09:35:54;7.90;71.10
10057;DHT22;5068;51.286;7.518;2023-11-21T09:37:26;7.90;71.10
10057;DHT22;5068;51.286;7.518;2023-11-21T09:39:00;7.90;71.10
10057;DHT22;5068;51.286;7.518;2023-11-21T09:40:36;7.90;71.10
10057;DHT22;5068;51.286;7.518;2023-11-21T09:42:12;7.90;71.70
10057;DHT22;5068;51.286;7.518;2023-11-21T09:43:50;7.90;71.20
10057;DHT22;5068;51.286;7.518;2023-11-21T09:45:28;8.00;71.40
10057;DHT22;5068;51.286;7.518;2023-11-21T09:47:06;8.00;71.40
10057;DHT22;5068;51.286;7.518;2023-11-21T09:48:43;8.00;71.20
10057;DHT22;5068;51.286;7.518;2023-11-21T09:50:17;8.00;71.30
10057;DHT22;5068;51.286;7.518;2023-11-21T09:51:55;8.00;71.30
10057;DHT22;5068;51.286;7.518;2023-11-21T09:53:30;8.00;71.30
10057;DHT22;5068;51.286;7.518;2023-11-21T09:55:06;8.00;71.30
10057;DHT22;5068;51.286;7.518;2023-11-21T09:56:41;8.10;71.40
10057;DHT22;5068;51.286;7.518;2023-11-21T09:58:15;8.10;71.40
10057;DHT22;5068;51.286;7.518;2023-11-21T09:59:51;8.10;71.40
10057;DHT22;5068;51.286;7.518;2023-11-21T10:01:28;8.10;71.40
10057;DHT22;5068;51.286;7.518;2023-11-21T10:03:02;8.10;71.40
10057;DHT22;5068;51.286;7.518;2023-11-21T10:04:35;8.20;71.40
10057;DHT22;5068;51.286;7.518;2023-11-21T10:06:09;8.20;71.30
10057;DHT22;5068;51.286;7.518;2023-11-21T10:07:46;8.20;71.40
10057;DHT22;5068;51.286;7.518;2023-11-21T10:09:19;8.20;71.40
10057;DHT22;5068;51.286;7.518;2023-11-21T10:10:54;8.30;71.60
10057;DHT22;5068;51.286;7.518;2023-11-21T10:12:28;8.30;71.70